Time;durP1;ratioP1;P1;durP2;ratioP2;P2;SDS_P1;SDS_P2;PMS_P1;PMS_P2;Temp;Humidity;BMP_temperature;BMP_pressure;BME280_temperature;BME280_humidity;BME280_pressure;Samples;Min_cycle;Max_cycle;Signal;HPM_P1;HPM_P2
2023/05/03 00:01:44;;;;;;;16.80;5.37;;;;;;;2.85;100.00;102972.63;7388397;19;20409;-36
2023/05/03 00:04:14;;;;;;;11.60;4.67;;;;;;;2.89;100.00;102985.00;7392117;19;20502;-36
2023/05/03 00:06:44;;;;;;;10.03;4.50;;;;;;;2.94;100.00;102988.94;7386031;19;20790;-38
2023/05/03 00:09:14;;;;;;;11.37;4.77;;;;;;;2.95;100.00;102990.75;7392710;19;20400;-36
2023/05/03 00:11:47;;;;;;;11.80;4.67;;;;;;;2.98;100.00;103000.41;7389438;19;20971;-37
2023/05/03 00:14:16;;;;;;;10.20;4.47;;;;;;;2.91;100.00;102988.59;7391751;19;20418;-37
2023/05/03 00:16:46;;;;;;;11.23;4.17;;;;;;;2.92;100.00;102994.63;7393355;19;20419;-38
2023/05/03 00:19:15;;;;;;;9.97;4.60;;;;;;;2.86;100.00;102996.50;7391846;19;20420;-36
2023/05/03 00:21:59;;;;;;;10.03;4.07;;;;;;;2.79;100.00;102993.28;7392042;19;20741;-38
2023/05/03 00:24:29;;;;;;;7.93;3.60;;;;;;;2.76;100.00;102986.94;7388561;19;20442;-36
2023/05/03 00:27:01;;;;;;;10.87;4.00;;;;;;;2.76;100.00;102982.75;7390913;19;20419;-36
2023/05/03 00:29:30;;;;;;;12.33;4.00;;;;;;;2.77;100.00;102993.84;7389356;19;20382;-38
2023/05/03 00:32:01;;;;;;;9.60;3.20;;;;;;;2.72;100.00;102989.88;7391287;19;20406;-39
2023/05/03 00:34:33;;;;;;;6.80;3.83;;;;;;;2.70;100.00;102992.25;7386393;19;20375;-39
2023/05/03 00:37:03;;;;;;;14.00;3.47;;;;;;;2.65;100.00;102990.84;7395700;19;20765;-40
2023/05/03 00:39:33;;;;;;;11.00;3.77;;;;;;;2.66;100.00;102996.13;7389590;19;20774;-36
2023/05/03 00:42:05;;;;;;;5.73;3.30;;;;;;;2.54;100.00;102997.31;7389733;19;20989;-36
2023/05/03 00:44:35;;;;;;;6.67;3.10;;;;;;;2.53;100.00;102991.34;7388458;19;20408;-36
2023/05/03 00:47:05;;;;;;;14.43;5.40;;;;;;;2.49;100.00;102984.06;7389952;19;20956;-36
2023/05/03 00:49:35;;;;;;;8.90;3.37;;;;;;;2.55;100.00;102982.19;7388412;19;20371;-36
2023/05/03 00:52:05;;;;;;;8.23;4.07;;;;;;;2.55;100.00;102979.66;7390930;19;20410;-37
2023/05/03 00:54:36;;;;;;;11.17;4.33;;;;;;;2.57;100.00;102984.94;7392573;19;20410;-36
2023/05/03 00:57:09;;;;;;;10.43;3.73;;;;;;;2.55;100.00;102973.63;7390821;19;20408;-38
2023/05/03 00:59:38;;;;;;;15.83;3.70;;;;;;;2.54;100.00;102977.84;7387422;19;20408;-37
2023/05/03 01:02:08;;;;;;;12.10;3.80;;;;;;;2.49;100.00;102976.44;7389484;19;20382;-37
2023/05/03 01:04:38;;;;;;;8.37;3.63;;;;;;;2.48;100.00;102974.63;7387714;19;20367;-37
2023/05/03 01:07:17;;;;;;;9.73;4.27;;;;;;;2.44;100.00;102969.91;7390589;19;20427;-38
2023/05/03 01:09:56;;;;;;;14.37;3.37;;;;;;;2.48;100.00;102972.06;7387403;19;21054;-38
2023/05/03 01:12:35;;;;;;;12.63;3.37;;;;;;;2.47;100.00;102974.44;7390259;19;20398;-38
2023/05/03 01:15:10;;;;;;;10.87;3.63;;;;;;;2.40;100.00;102975.41;7386812;19;20398;-37
2023/05/03 01:17:41;;;;;;;13.10;3.60;;;;;;;2.41;100.00;102970.47;7394599;19;20743;-38
2023/05/03 01:20:15;;;;;;;15.20;3.80;;;;;;;2.43;100.00;102979.19;7380868;19;20394;-41
2023/05/03 01:22:48;;;;;;;13.53;3.40;;;;;;;2.38;100.00;102989.63;7389556;19;20897;-38
2023/05/03 01:25:20;;;;;;;7.43;3.57;;;;;;;2.33;100.00;102993.28;7387524;19;20406;-38
2023/05/03 01:27:50;;;;;;;8.30;3.67;;;;;;;2.40;100.00;103000.88;7389892;19;20387;-36
2023/05/03 01:30:20;;;;;;;9.47;3.47;;;;;;;2.34;100.00;103005.28;7388200;19;20745;-37
2023/05/03 01:32:56;;;;;;;7.20;3.60;;;;;;;2.35;100.00;103000.38;7390613;19;20411;-37
2023/05/03 01:35:31;;;;;;;8.90;4.07;;;;;;;2.31;100.00;103002.41;7387225;19;20398;-39
2023/05/03 01:38:01;;;;;;;8.10;3.30;;;;;;;2.25;100.00;102995.91;7390080;19;20736;-40
2023/05/03 01:40:34;;;;;;;10.53;3.50;;;;;;;2.27;100.00;102996.09;7385915;19;20407;-37
2023/05/03 01:43:04;;;;;;;10.80;3.83;;;;;;;2.27;100.00;102996.97;7388920;19;20943;-40
2023/05/03 01:45:34;;;;;;;6.57;3.40;;;;;;;2.27;100.00;102994.41;7387071;19;21014;-38
2023/05/03 01:48:04;;;;;;;8.03;3.70;;;;;;;2.27;100.00;102991.88;7389413;19;20375;-39
2023/05/03 01:50:33;;;;;;;9.60;3.90;;;;;;;2.31;100.00;102994.78;7386447;19;20933;-37
2023/05/03 01:53:03;;;;;;;9.70;4.07;;;;;;;2.41;100.00;102992.53;7388883;19;20778;-39
2023/05/03 01:55:35;;;;;;;7.13;3.40;;;;;;;2.43;100.00;102986.84;7392817;19;20802;-38
2023/05/03 01:58:05;;;;;;;8.30;3.90;;;;;;;2.42;100.00;102999.44;7395024;19;20394;-37
2023/05/03 02:00:34;;;;;;;15.60;4.40;;;;;;;2.30;100.00;102998.94;7393859;19;20405;-37
2023/05/03 02:03:04;;;;;;;14.00;5.60;;;;;;;2.13;100.00;103003.09;7395332;19;20411;-36
2023/05/03 02:05:33;;;;;;;12.03;4.80;;;;;;;2.06;100.00;102995.50;7393932;19;20478;-36
2023/05/03 02:08:03;;;;;;;14.80;4.57;;;;;;;2.11;100.00;102990.91;7395042;19;20939;-36
2023/05/03 02:10:37;;;;;;;10.33;3.70;;;;;;;2.19;100.00;102979.94;7391334;19;20962;-40
2023/05/03 02:13:07;;;;;;;15.20;3.90;;;;;;;2.32;100.00;102976.19;7395322;19;20443;-38
2023/05/03 02:15:36;;;;;;;8.00;3.80;;;;;;;2.37;100.00;102975.06;7394304;19;20419;-38
2023/05/03 02:18:07;;;;;;;10.07;4.03;;;;;;;2.33;100.00;102980.56;7395752;19;20367;-36
2023/05/03 02:20:37;;;;;;;8.83;4.37;;;;;;;2.33;100.00;102994.22;7392970;19;20406;-39
2023/05/03 02:23:06;;;;;;;13.93;3.80;;;;;;;2.41;100.00;102992.53;7396425;19;20399;-36
2023/05/03 02:25:38;;;;;;;7.83;3.73;;;;;;;2.38;100.00;102998.19;7393585;19;20434;-36
2023/05/03 02:28:14;;;;;;;7.90;2.90;;;;;;;2.52;100.00;102998.81;7396361;19;20399;-37
2023/05/03 02:30:44;;;;;;;11.50;3.47;;;;;;;2.59;100.00;103008.00;7391030;19;20434;-39
2023/05/03 02:33:14;;;;;;;11.67;3.63;;;;;;;2.66;100.00;103010.53;7395122;19;20398;-38
2023/05/03 02:35:43;;;;;;;9.40;4.07;;;;;;;2.64;100.00;103022.19;7393125;19;20423;-38
2023/05/03 02:38:13;;;;;;;10.90;4.20;;;;;;;2.63;100.00;103031.50;7395360;19;20745;-40
2023/05/03 02:40:45;;;;;;;10.20;3.60;;;;;;;2.65;100.00;103034.19;7392943;19;20425;-38
2023/05/03 02:43:15;;;;;;;9.90;3.97;;;;;;;2.76;100.00;103033.72;7394490;19;20766;-39
2023/05/03 02:45:44;;;;;;;9.30;3.37;;;;;;;2.75;100.00;103053.94;7394407;19;20423;-37
2023/05/03 02:48:15;;;;;;;15.70;3.30;;;;;;;2.91;100.00;103044.72;7394079;19;20403;-37
2023/05/03 02:50:45;;;;;;;7.27;3.97;;;;;;;2.87;100.00;103056.97;7389008;19;20776;-38
2023/05/03 02:53:14;;;;;;;9.83;4.27;;;;;;;2.94;100.00;103064.53;7397217;19;20443;-38
2023/05/03 02:55:46;;;;;;;9.17;3.57;;;;;;;3.02;100.00;103058.63;7389982;19;20421;-36
2023/05/03 02:58:16;;;;;;;11.73;4.40;;;;;;;3.13;100.00;103066.56;7394011;19;20375;-40
2023/05/03 03:00:46;;;;;;;11.03;4.17;;;;;;;3.14;100.00;103076.03;7391392;19;20411;-37
2023/05/03 03:03:15;;;;;;;11.70;3.97;;;;;;;3.12;100.00;103080.94;7393479;19;20442;-37
2023/05/03 03:05:45;;;;;;;9.40;3.90;;;;;;;3.14;100.00;103088.78;7386165;19;20443;-38
2023/05/03 03:08:15;;;;;;;6.93;3.93;;;;;;;3.28;100.00;103097.94;7393986;19;20404;-37
2023/05/03 03:10:47;;;;;;;10.03;3.87;;;;;;;3.32;100.00;103101.00;7392359;19;20423;-37
2023/05/03 03:13:16;;;;;;;7.50;3.40;;;;;;;3.15;100.00;103103.34;7394891;19;20437;-38
2023/05/03 03:15:46;;;;;;;10.30;3.60;;;;;;;3.17;100.00;103107.00;7391637;19;20447;-39
2023/05/03 03:18:16;;;;;;;8.87;3.83;;;;;;;2.97;100.00;103110.78;7393012;19;20757;-38
2023/05/03 03:20:47;;;;;;;13.80;4.20;;;;;;;2.96;100.00;103108.97;7386668;19;20447;-37
2023/05/03 03:23:17;;;;;;;13.83;4.07;;;;;;;3.41;100.00;103084.84;7392845;19;20449;-36
2023/05/03 03:25:49;;;;;;;8.80;3.20;;;;;;;3.33;100.00;103099.38;7391319;19;20415;-38
2023/05/03 03:28:19;;;;;;;14.63;3.60;;;;;;;3.29;100.00;103110.88;7393136;19;20412;-37
2023/05/03 03:30:48;;;;;;;6.10;3.13;;;;;;;3.32;100.00;103112.84;7391132;19;20415;-37
2023/05/03 03:33:18;;;;;;;12.83;3.90;;;;;;;3.25;100.00;103116.38;7393283;19;20431;-37
2023/05/03 03:35:48;;;;;;;12.70;3.40;;;;;;;3.19;100.00;103124.25;7388776;19;20502;-38
2023/05/03 03:38:17;;;;;;;8.37;4.07;;;;;;;3.18;100.00;103108.81;7393047;19;20396;-37
2023/05/03 03:40:49;;;;;;;11.70;4.00;;;;;;;3.37;100.00;103117.72;7390555;19;20418;-38
2023/05/03 03:43:19;;;;;;;8.47;4.10;;;;;;;3.44;100.00;103115.84;7392639;19;20431;-37
2023/05/03 03:45:48;;;;;;;11.73;4.13;;;;;;;3.54;100.00;103118.63;7392967;19;20404;-37
2023/05/03 03:48:18;;;;;;;10.23;4.10;;;;;;;3.86;100.00;103107.53;7392330;19;20388;-38
2023/05/03 03:50:47;;;;;;;15.77;4.87;;;;;;;3.75;100.00;103119.16;7389274;19;20432;-37
2023/05/03 03:53:17;;;;;;;10.87;4.20;;;;;;;3.48;100.00;103120.50;7393569;19;20432;-37
2023/05/03 03:55:49;;;;;;;7.97;3.40;;;;;;;3.39;100.00;103123.00;7390200;19;20450;-38
2023/05/03 03:58:19;;;;;;;14.13;4.10;;;;;;;3.78;100.00;103107.63;7392295;19;20403;-38
2023/05/03 04:00:49;;;;;;;12.93;4.70;;;;;;;3.71;100.00;103117.91;7389487;19;20440;-36
2023/05/03 04:03:18;;;;;;;11.27;4.00;;;;;;;3.60;100.00;103119.28;7392065;19;20439;-38
2023/05/03 04:05:48;;;;;;;8.90;4.20;;;;;;;3.84;100.00;103121.78;7389784;19;20408;-38
2023/05/03 04:08:18;;;;;;;9.60;4.30;;;;;;;3.88;100.00;103121.34;7391468;19;20404;-37
2023/05/03 04:10:50;;;;;;;8.40;4.00;;;;;;;3.73;100.00;103116.44;7391280;19;20438;-37
2023/05/03 04:13:19;;;;;;;9.53;4.27;;;;;;;3.76;100.00;103131.19;7391346;19;20946;-37
2023/05/03 04:15:49;;;;;;;14.13;5.40;;;;;;;3.94;100.00;103129.66;7389364;19;20437;-37
2023/05/03 04:18:18;;;;;;;12.67;4.87;;;;;;;3.97;100.00;103135.13;7390039;19;20396;-37
2023/05/03 04:20:48;;;;;;;8.00;4.20;;;;;;;4.01;100.00;103139.78;7388582;19;20439;-37
2023/05/03 04:23:17;;;;;;;9.23;5.27;;;;;;;4.14;100.00;103149.69;7391156;19;20769;-39
2023/05/03 04:25:49;;;;;;;11.03;4.33;;;;;;;4.30;100.00;103141.06;7389829;19;20423;-37
2023/05/03 04:28:19;;;;;;;9.80;4.77;;;;;;;4.24;100.00;103142.97;7391195;19;20951;-37
2023/05/03 04:30:49;;;;;;;10.33;4.40;;;;;;;4.33;100.00;103138.88;7386748;19;20816;-37
2023/05/03 04:33:18;;;;;;;8.93;4.30;;;;;;;4.25;100.00;103139.72;7391872;19;20444;-40
2023/05/03 04:35:51;;;;;;;11.33;4.33;;;;;;;4.17;100.00;103138.88;7389277;19;20415;-38
2023/05/03 04:38:21;;;;;;;11.83;4.37;;;;;;;4.22;100.00;103139.38;7390853;19;20742;-37
2023/05/03 04:40:53;;;;;;;10.23;4.17;;;;;;;4.55;100.00;103141.09;7387891;19;20427;-37
2023/05/03 04:43:22;;;;;;;8.77;4.57;;;;;;;4.48;100.00;103147.25;7390507;19;20420;-37
2023/05/03 04:45:54;;;;;;;9.43;4.93;;;;;;;4.61;100.00;103145.97;7388531;19;20423;-38
2023/05/03 04:48:23;;;;;;;11.10;4.60;;;;;;;4.59;100.00;103143.25;7392386;19;20395;-37
2023/05/03 04:50:53;;;;;;;9.70;4.10;;;;;;;4.81;100.00;103148.03;7383696;19;20394;-36
2023/05/03 04:53:23;;;;;;;11.73;4.77;;;;;;;4.92;100.00;103139.81;7393377;19;20451;-37
2023/05/03 04:55:55;;;;;;;7.67;4.30;;;;;;;5.14;100.00;103142.03;7391711;19;20975;-38
2023/05/03 04:58:27;;;;;;;8.27;4.17;;;;;;;5.01;100.00;103114.25;7393234;19;20419;-39
2023/05/03 05:00:57;;;;;;;11.77;4.77;;;;;;;5.14;100.00;103116.44;7390831;19;20418;-37
2023/05/03 05:03:27;;;;;;;8.27;4.30;;;;;;;4.72;100.00;103095.19;7393662;19;21325;-37
2023/05/03 05:05:56;;;;;;;13.97;4.60;;;;;;;4.80;100.00;103092.50;7391388;19;20442;-37
2023/05/03 05:08:26;;;;;;;12.83;4.67;;;;;;;4.89;100.00;103088.34;7393570;19;20379;-37
2023/05/03 05:10:58;;;;;;;9.80;4.40;;;;;;;5.05;100.00;103097.56;7390069;19;20454;-38
2023/05/03 05:13:28;;;;;;;8.40;4.50;;;;;;;4.91;100.00;103080.84;7393862;19;20522;-39
2023/05/03 05:15:57;;;;;;;9.73;5.30;;;;;;;5.18;100.00;103085.25;7391110;19;20435;-37
2023/05/03 05:18:27;;;;;;;9.50;4.90;;;;;;;5.39;100.00;103072.84;7393105;19;20419;-38
2023/05/03 05:20:56;;;;;;;12.23;4.60;;;;;;;5.10;100.00;103047.75;7391350;19;20430;-38
2023/05/03 05:23:26;;;;;;;11.07;4.43;;;;;;;5.04;100.00;103047.13;7387938;19;20447;-38
2023/05/03 05:25:59;;;;;;;9.37;3.97;;;;;;;5.04;100.00;103032.72;7390724;19;20872;-38
2023/05/03 05:28:29;;;;;;;10.67;3.73;;;;;;;4.99;100.00;103031.34;7390843;19;20395;-37
2023/05/03 05:30:59;;;;;;;8.00;3.80;;;;;;;5.08;100.00;103031.34;7389440;19;20471;-37
2023/05/03 05:33:28;;;;;;;8.87;3.93;;;;;;;5.57;100.00;103044.66;7393418;19;20489;-38
2023/05/03 05:35:58;;;;;;;15.43;4.17;;;;;;;5.75;100.00;103025.09;7391169;19;20439;-36
2023/05/03 05:38:27;;;;;;;8.90;4.30;;;;;;;5.68;100.00;102977.47;7392442;19;20391;-37
2023/05/03 05:41:00;;;;;;;8.17;4.13;;;;;;;5.62;100.00;102949.63;7390221;19;20498;-38
2023/05/03 05:43:29;;;;;;;13.93;4.00;;;;;;;5.57;100.00;102950.81;7392257;19;20447;-39
2023/05/03 05:45:59;;;;;;;11.43;3.70;;;;;;;5.42;100.00;102939.97;7388083;19;20805;-37
2023/05/03 05:48:29;;;;;;;58.30;26.43;;;;;;;5.81;100.00;102971.88;7394730;19;20407;-38
2023/05/03 05:50:58;;;;;;;13.30;5.47;;;;;;;6.43;100.00;102971.75;7390343;19;20422;-38
2023/05/03 05:53:28;;;;;;;13.10;3.50;;;;;;;6.06;100.00;102862.41;7391504;19;20440;-37
2023/05/03 05:56:00;;;;;;;10.23;4.00;;;;;;;5.84;100.00;102815.88;7390316;19;20427;-37
2023/05/03 05:58:30;;;;;;;38.47;16.30;;;;;;;5.96;100.00;102818.72;7392124;19;20430;-39
2023/05/03 06:01:00;;;;;;;14.17;5.47;;;;;;;6.01;100.00;102824.25;7389572;19;20447;-38
2023/05/03 06:03:30;;;;;;;11.80;3.93;;;;;;;6.15;100.00;102779.44;7392846;19;20557;-37
2023/05/03 06:06:00;;;;;;;16.00;6.33;;;;;;;6.32;100.00;102761.38;7388530;19;20446;-38
2023/05/03 06:08:30;;;;;;;16.90;4.33;;;;;;;6.14;100.00;102708.41;7391889;19;20399;-39
2023/05/03 06:11:02;;;;;;;10.57;3.80;;;;;;;6.07;100.00;102679.66;7387647;19;20779;-36
2023/05/03 06:13:33;;;;;;;12.57;4.07;;;;;;;6.14;100.00;102686.25;7392407;19;20451;-38
2023/05/03 06:16:03;;;;;;;10.50;3.43;;;;;;;6.06;100.00;102682.13;7390311;19;20462;-38
2023/05/03 06:18:32;;;;;;;10.27;3.73;;;;;;;6.10;100.00;102676.47;7392016;19;20387;-37
2023/05/03 06:21:02;;;;;;;6.03;3.57;;;;;;;6.26;100.00;102670.19;7387905;19;20458;-38
2023/05/03 06:23:32;;;;;;;11.27;4.00;;;;;;;6.27;100.00;102656.63;7390998;19;20946;-36
2023/05/03 06:26:04;;;;;;;9.20;3.20;;;;;;;6.19;100.00;102535.44;7389422;19;20440;-37
2023/05/03 06:28:33;;;;;;;7.67;2.50;;;;;;;6.33;100.00;102447.84;7392055;19;20423;-38
2023/05/03 06:31:03;;;;;;;7.90;3.40;;;;;;;6.51;100.00;102359.53;7388423;19;20812;-38
2023/05/03 06:33:33;;;;;;;6.27;2.37;;;;;;;6.53;100.00;102257.97;7391523;19;20473;-37
2023/05/03 06:36:02;;;;;;;4.83;2.30;;;;;;;6.59;100.00;102172.16;7387594;19;20443;-41
2023/05/03 06:38:32;;;;;;;22.23;7.80;;;;;;;6.71;100.00;102163.66;7390992;19;20404;-37
2023/05/03 06:41:04;;;;;;;4.40;1.77;;;;;;;6.72;100.00;102114.16;7391990;19;20423;-36
2023/05/03 06:43:33;;;;;;;11.03;2.07;;;;;;;6.69;100.00;102047.22;7397619;19;20543;-38
2023/05/03 06:46:03;;;;;;;7.13;1.87;;;;;;;6.65;100.00;102006.72;7394801;19;20439;-37
2023/05/03 06:48:33;;;;;;;4.70;2.17;;;;;;;6.73;100.00;101993.69;7397730;19;20430;-40
2023/05/03 06:51:02;;;;;;;5.90;1.57;;;;;;;6.74;100.00;101980.13;7393916;19;20449;-36
2023/05/03 06:53:32;;;;;;;7.10;1.57;;;;;;;6.79;100.00;101971.88;7397556;19;20446;-38
2023/05/03 06:56:05;;;;;;;10.03;2.67;;;;;;;6.78;100.00;101970.06;7394837;19;20443;-38
2023/05/03 06:58:34;;;;;;;4.70;1.50;;;;;;;6.74;100.00;101974.09;7397633;19;21419;-37
2023/05/03 07:01:04;;;;;;;4.13;1.20;;;;;;;6.74;100.00;101987.81;7394183;19;20431;-37
2023/05/03 07:03:34;;;;;;;6.07;1.90;;;;;;;6.76;100.00;101993.03;7397616;19;20454;-38
2023/05/03 07:06:04;;;;;;;3.33;1.10;;;;;;;6.80;100.00;101994.16;7394106;19;20985;-37
2023/05/03 07:08:33;;;;;;;6.20;1.37;;;;;;;6.87;100.00;101987.06;7394590;19;20402;-37
2023/05/03 07:11:05;;;;;;;6.10;1.13;;;;;;;6.97;100.00;101995.50;7393888;19;20435;-36
2023/05/03 07:13:35;;;;;;;44.30;15.63;;;;;;;7.10;100.00;101992.16;7397082;19;20454;-40
2023/05/03 07:16:05;;;;;;;5.30;1.20;;;;;;;7.12;100.00;102009.47;7392377;19;20796;-39
2023/05/03 07:18:34;;;;;;;8.70;1.20;;;;;;;7.18;100.00;102028.69;7397550;19;20475;-39
2023/05/03 07:21:05;;;;;;;10.97;4.60;;;;;;;7.19;100.00;102051.91;7394433;19;20451;-41
2023/05/03 07:23:37;;;;;;;4.80;1.20;;;;;;;7.20;100.00;102065.63;7397959;19;20451;-39
2023/05/03 07:26:10;;;;;;;5.17;1.40;;;;;;;7.16;100.00;102087.59;7394536;19;20443;-38
2023/05/03 07:28:39;;;;;;;5.17;1.37;;;;;;;7.27;100.00;102091.00;7397412;19;20399;-38
2023/05/03 07:31:09;;;;;;;4.90;1.30;;;;;;;7.48;100.00;102090.84;7393649;19;20447;-37
2023/05/03 07:33:38;;;;;;;10.13;1.50;;;;;;;7.49;100.00;102138.88;7396675;19;20462;-38
2023/05/03 07:36:08;;;;;;;26.60;9.13;;;;;;;7.62;100.00;102127.84;7393130;19;20467;-37
2023/05/03 07:38:38;;;;;;;6.53;1.87;;;;;;;7.52;100.00;102193.03;7396706;19;20769;-38
2023/05/03 07:41:10;;;;;;;55.83;24.93;;;;;;;7.80;100.00;102128.34;7391133;19;20455;-37
2023/05/03 07:43:39;;;;;;;115.10;49.80;;;;;;;7.73;100.00;102177.50;7395768;19;20458;-39
2023/05/03 07:46:09;;;;;;;7.70;1.53;;;;;;;7.77;100.00;102215.47;7392374;19;20455;-37
2023/05/03 07:48:39;;;;;;;9.93;2.27;;;;;;;7.84;100.00;102176.59;7398129;19;20435;-37
2023/05/03 07:51:09;;;;;;;15.10;7.77;;;;;;;7.77;100.00;102171.78;7390060;19;20459;-38
2023/05/03 07:53:39;;;;;;;16.63;6.27;;;;;;;7.47;100.00;102218.34;7393691;19;20446;-37
2023/05/03 07:56:12;;;;;;;10.10;3.40;;;;;;;7.43;100.00;102232.63;7392720;19;20435;-37
2023/05/03 07:58:41;;;;;;;12.27;5.00;;;;;;;7.53;100.00;102215.34;7396132;19;20414;-38
2023/05/03 08:01:15;;;;;;;15.77;5.87;;;;;;;7.57;100.00;102232.81;7391796;19;20471;-38
2023/05/03 08:03:44;;;;;;;27.50;8.27;;;;;;;7.81;100.00;102266.31;7395833;19;20475;-40
2023/05/03 08:06:14;;;;;;;18.33;8.20;;;;;;;8.06;100.00;102306.78;7393132;19;20443;-39
2023/05/03 08:08:44;;;;;;;11.43;5.50;;;;;;;8.33;100.00;102351.69;7395122;19;20407;-39
2023/05/03 08:11:16;;;;;;;3.53;1.40;;;;;;;8.35;100.00;102409.28;7386824;19;20435;-38
2023/05/03 08:13:46;;;;;;;3.13;1.03;;;;;;;8.26;100.00;102430.81;7395297;19;20439;-37
2023/05/03 08:16:15;;;;;;;14.33;7.17;;;;;;;8.08;100.00;102413.19;7391378;19;20477;-37
2023/05/03 08:18:45;;;;;;;9.13;2.70;;;;;;;7.90;100.00;102394.66;7395359;19;20408;-37
2023/05/03 08:21:16;;;;;;;5.27;1.77;;;;;;;7.82;100.00;102366.66;7389528;19;20435;-41
2023/05/03 08:23:46;;;;;;;14.47;6.07;;;;;;;7.90;100.00;102328.69;7394772;19;20537;-37
2023/05/03 08:26:18;;;;;;;17.00;6.17;;;;;;;7.88;100.00;102330.25;7391483;19;20458;-36
2023/05/03 08:28:47;;;;;;;8.50;2.70;;;;;;;8.03;100.00;102361.41;7395384;19;20419;-38
2023/05/03 08:31:17;;;;;;;13.20;6.07;;;;;;;8.38;100.00;102381.22;7389082;19;20451;-37
2023/05/03 08:33:47;;;;;;;28.67;13.10;;;;;;;8.69;100.00;102405.88;7394413;19;20455;-37
2023/05/03 08:36:16;;;;;;;91.13;44.07;;;;;;;9.18;100.00;102353.69;7392356;19;20463;-38
2023/05/03 08:38:46;;;;;;;6.83;2.90;;;;;;;9.11;100.00;102464.72;7394994;19;20419;-37
2023/05/03 08:41:24;;;;;;;8.87;3.67;;;;;;;9.00;100.00;102493.13;7389528;19;20447;-37
2023/05/03 08:43:56;;;;;;;41.00;17.13;;;;;;;9.07;100.00;102504.78;7395424;19;20439;-36
2023/05/03 08:46:27;;;;;;;8.50;2.67;;;;;;;8.90;100.00;102518.94;7391916;19;20446;-36
2023/05/03 08:48:57;;;;;;;39.70;21.40;;;;;;;8.90;100.00;102495.78;7394916;19;20404;-37
2023/05/03 08:51:27;;;;;;;6.67;1.30;;;;;;;8.78;100.00;102508.63;7388649;19;20466;-37
2023/05/03 08:53:57;;;;;;;7.30;1.70;;;;;;;8.66;100.00;102454.50;7393515;19;20457;-36
2023/05/03 08:56:31;;;;;;;5.37;1.20;;;;;;;8.55;100.00;102411.66;7391659;19;20435;-36
2023/05/03 08:59:06;;;;;;;6.80;1.50;;;;;;;8.63;100.00;102387.38;7394026;19;21318;-36
2023/05/03 09:01:37;;;;;;;8.77;1.93;;;;;;;8.67;100.00;102415.13;7390279;19;20445;-36
2023/05/03 09:04:07;;;;;;;5.53;1.20;;;;;;;8.64;100.00;102425.19;7393208;19;20474;-37
2023/05/03 09:06:37;;;;;;;6.57;1.50;;;;;;;8.82;100.00;102419.66;7390766;19;20457;-36
2023/05/03 09:09:09;;;;;;;4.23;1.40;;;;;;;8.85;100.00;102453.34;7392617;19;20400;-37
2023/05/03 09:11:41;;;;;;;3.80;1.23;;;;;;;8.93;100.00;102495.13;7389449;19;20447;-37
2023/05/03 09:14:12;;;;;;;5.60;1.43;;;;;;;8.93;100.00;102532.06;7391807;19;21010;-36
2023/05/03 09:16:43;;;;;;;15.90;4.67;;;;;;;8.91;100.00;102518.16;7389480;19;20455;-37
2023/05/03 09:19:14;;;;;;;4.73;1.63;;;;;;;8.97;100.00;102528.94;7392744;19;20399;-40
2023/05/03 09:21:45;;;;;;;8.30;2.97;;;;;;;8.94;100.00;102540.69;7390582;19;20947;-39
2023/05/03 09:24:16;;;;;;;3.93;1.10;;;;;;;9.19;100.00;102558.91;7391989;19;21324;-37
2023/05/03 09:26:49;;;;;;;3.23;1.10;;;;;;;9.60;100.00;102560.25;7394139;19;20459;-38
2023/05/03 09:29:30;;;;;;;4.07;0.90;;;;;;;9.19;100.00;102588.13;7392967;19;20415;-36
2023/05/03 09:32:01;;;;;;;17.83;5.03;;;;;;;9.26;100.00;102574.06;7392849;19;20481;-38
2023/05/03 09:34:31;;;;;;;6.20;1.40;;;;;;;9.34;100.00;102561.75;7387320;19;20834;-37
2023/05/03 09:37:00;;;;;;;113.40;63.43;;;;;;;9.97;100.00;102446.03;7393514;19;20416;-40
2023/05/03 09:39:30;;;;;;;6.40;2.70;;;;;;;9.80;100.00;102597.78;7389507;19;20408;-39
2023/05/03 09:42:12;;;;;;;45.83;25.43;;;;;;;10.23;100.00;102507.22;7394179;19;20424;-37
2023/05/03 09:44:43;;;;;;;139.90;69.73;;;;;;;10.53;100.00;102597.91;7389273;19;20495;-38
2023/05/03 09:47:13;;;;;;;59.50;34.70;;;;;;;10.85;100.00;102608.75;7392276;19;20415;-39
2023/05/03 09:49:43;;;;;;;12.00;3.20;;;;;;;10.19;100.00;102698.66;7388497;19;20541;-37
2023/05/03 09:52:13;;;;;;;39.23;22.60;;;;;;;10.31;100.00;102683.16;7390852;19;20753;-38
2023/05/03 09:54:46;;;;;;;5.00;2.30;;;;;;;10.13;100.00;102717.16;7388924;19;20422;-37
2023/05/03 09:57:18;;;;;;;6.03;2.60;;;;;;;10.60;100.00;102701.59;7391866;19;20407;-40
2023/05/03 09:59:49;;;;;;;12.40;5.20;;;;;;;10.64;100.00;102712.28;7389032;19;20436;-38
2023/05/03 10:02:20;;;;;;;4.90;1.33;;;;;;;10.96;100.00;102733.47;7391615;19;20775;-38
2023/05/03 10:04:55;;;;;;;9.00;3.43;;;;;;;10.66;100.00;102720.13;7389026;19;20763;-38
2023/05/03 10:07:27;;;;;;;7.50;3.47;;;;;;;10.34;100.00;102716.94;7391688;19;20418;-38
2023/05/03 10:09:58;;;;;;;5.57;1.77;;;;;;;9.96;100.00;102720.16;7387218;19;20825;-36
2023/05/03 10:12:33;;;;;;;3.73;1.10;;;;;;;9.88;100.00;102700.63;7391661;19;20794;-38
2023/05/03 10:15:05;;;;;;;7.87;1.70;;;;;;;9.66;100.00;102688.66;7388298;19;20439;-39
2023/05/03 10:17:36;;;;;;;4.37;1.47;;;;;;;9.52;100.00;102659.25;7400950;19;20399;-38
2023/05/03 10:20:23;;;;;;;6.30;1.40;;;;;;;9.53;100.00;102680.00;7394971;19;20771;-38
2023/05/03 10:23:11;;;;;;;5.63;1.30;;;;;;;9.62;100.00;102676.31;7398686;19;20506;-38
2023/05/03 10:25:42;;;;;;;5.07;1.10;;;;;;;9.69;100.00;102683.75;7396082;19;20438;-37
2023/05/03 10:28:14;;;;;;;4.90;1.07;;;;;;;9.96;100.00;102709.81;7397257;19;20419;-38
2023/05/03 10:30:44;;;;;;;3.97;1.37;;;;;;;10.15;100.00;102722.41;7394233;19;20447;-38
2023/05/03 10:33:33;;;;;;;5.03;1.63;;;;;;;10.21;100.00;102722.00;7396788;19;20477;-39
2023/05/03 10:36:09;;;;;;;6.30;1.30;;;;;;;10.21;100.00;102716.81;7395649;19;20446;-38
2023/05/03 10:38:39;;;;;;;2.93;1.10;;;;;;;10.20;100.00;102712.47;7398230;19;20474;-38
2023/05/03 10:41:09;;;;;;;3.83;1.10;;;;;;;10.72;100.00;102717.97;7394423;19;21478;-38
2023/05/03 10:43:47;;;;;;;7.87;1.77;;;;;;;10.87;100.00;102713.03;7398365;19;20446;-36
2023/05/03 10:46:37;;;;;;;6.73;1.27;;;;;;;10.94;100.00;102704.94;7393782;19;20446;-38
2023/05/03 10:49:26;;;;;;;5.37;1.30;;;;;;;10.93;100.00;102708.31;7397412;19;20404;-38
2023/05/03 10:51:56;;;;;;;6.00;1.33;;;;;;;10.82;100.00;102709.22;7397558;19;20443;-38
2023/05/03 10:54:27;;;;;;;4.53;1.43;;;;;;;10.64;100.00;102709.72;7393452;19;20997;-40
2023/05/03 10:56:58;;;;;;;11.83;3.00;;;;;;;10.48;100.00;102707.69;7397003;19;20407;-38
2023/05/03 10:59:48;;;;;;;5.40;1.30;;;;;;;10.46;100.00;102706.66;7393609;19;20396;-37
2023/05/03 11:02:18;;;;;;;4.77;1.33;;;;;;;10.74;100.00;102703.53;7395624;19;20419;-38
2023/05/03 11:04:51;;;;;;;5.20;1.80;;;;;;;10.65;100.00;102700.25;7393861;19;20412;-38
2023/05/03 11:07:21;;;;;;;6.47;1.30;;;;;;;10.48;100.00;102704.19;7396383;19;20950;-37
2023/05/03 11:09:51;;;;;;;4.50;1.60;;;;;;;10.83;100.00;102707.53;7392401;19;20483;-37
2023/05/03 11:12:20;;;;;;;16.40;6.00;;;;;;;11.38;100.00;102707.97;7396315;19;20439;-37
2023/05/03 11:14:54;;;;;;;3.83;1.27;;;;;;;11.56;100.00;102717.78;7392476;19;20407;-36
2023/05/03 11:17:28;;;;;;;5.53;1.63;;;;;;;11.21;100.00;102711.97;7395965;19;20408;-38
2023/05/03 11:19:57;;;;;;;3.93;1.70;;;;;;;10.74;100.00;102706.09;7393633;19;20499;-38
2023/05/03 11:22:27;;;;;;;10.10;1.67;;;;;;;10.81;100.00;102712.59;7396451;19;20416;-38
2023/05/03 11:24:57;;;;;;;6.13;1.20;;;;;;;10.75;100.00;102707.91;7392306;19;20435;-38
2023/05/03 11:27:27;;;;;;;5.20;1.70;;;;;;;10.82;100.00;102704.06;7393248;19;20412;-38
2023/05/03 11:29:59;;;;;;;5.57;1.43;;;;;;;10.84;100.00;102707.66;7393081;19;20407;-37
2023/05/03 11:32:30;;;;;;;7.73;2.03;;;;;;;11.16;100.00;102716.81;7396013;19;20411;-38
2023/05/03 11:35:04;;;;;;;6.90;1.70;;;;;;;11.46;100.00;102701.66;7393369;19;20431;-39
2023/05/03 11:37:34;;;;;;;6.90;1.90;;;;;;;11.65;98.23;102707.19;7395787;19;20414;-40